Terminal Aerodrome Forecast
Issued by NWS Upton, NY

Home | Current Version | Previous Version | Text Only | Print | Product List | Glossary On
Versions: 1 2 3 4 5 6 7 8 9 10 11 12 13 14 15 16 17 18 19 20 21 22 23 24 25 26 27 28 29 30 31 32 33
215
FTUS41 KOKX 252326
TAFLGA
TAF
KLGA 252326Z 2600/2624 06008KT P6SM BKN040
     FM260500 VRB04KT P6SM BKN070
     FM261400 05006KT P6SM SKC
     FM261600 08007KT P6SM SCT040
     FM261800 15010KT P6SM SCT040=

USA.gov is the U.S. government's official web portal to all federal, state and local government web resources and services.